sensor_id;sensor_type;location;lat;lon;timestamp;temperature;humidity
20712;DHT22;10517;50.742;4.224;2022-08-01T00:02:12;20.60;99.90
20712;DHT22;10517;50.742;4.224;2022-08-01T00:04:38;20.70;99.90
20712;DHT22;10517;50.742;4.224;2022-08-01T00:07:03;20.60;99.90
20712;DHT22;10517;50.742;4.224;2022-08-01T00:09:29;20.50;99.90
20712;DHT22;10517;50.742;4.224;2022-08-01T00:11:55;20.50;99.90
20712;DHT22;10517;50.742;4.224;2022-08-01T00:14:20;20.40;99.90
20712;DHT22;10517;50.742;4.224;2022-08-01T00:16:46;20.50;99.90
20712;DHT22;10517;50.742;4.224;2022-08-01T00:19:11;20.50;99.90
20712;DHT22;10517;50.742;4.224;2022-08-01T00:21:37;20.70;99.90
20712;DHT22;10517;50.742;4.224;2022-08-01T00:24:03;20.70;99.90
20712;DHT22;10517;50.742;4.224;2022-08-01T00:26:28;20.60;99.90
20712;DHT22;10517;50.742;4.224;2022-08-01T00:28:54;20.60;99.90
20712;DHT22;10517;50.742;4.224;2022-08-01T00:31:20;20.70;99.90
20712;DHT22;10517;50.742;4.224;2022-08-01T00:33:45;20.60;99.90
20712;DHT22;10517;50.742;4.224;2022-08-01T00:36:11;20.70;99.90
20712;DHT22;10517;50.742;4.224;2022-08-01T00:38:36;20.80;99.90
20712;DHT22;10517;50.742;4.224;2022-08-01T00:41:02;21.00;99.90
20712;DHT22;10517;50.742;4.224;2022-08-01T00:43:28;20.90;99.90
20712;DHT22;10517;50.742;4.224;2022-08-01T00:45:53;20.90;99.90
20712;DHT22;10517;50.742;4.224;2022-08-01T00:48:19;21.00;99.90
20712;DHT22;10517;50.742;4.224;2022-08-01T00:50:44;21.20;99.90
20712;DHT22;10517;50.742;4.224;2022-08-01T00:53:10;21.20;99.90
20712;DHT22;10517;50.742;4.224;2022-08-01T00:55:36;21.30;99.90
20712;DHT22;10517;50.742;4.224;2022-08-01T00:58:02;21.10;99.90
20712;DHT22;10517;50.742;4.224;2022-08-01T01:00:28;21.20;99.90
20712;DHT22;10517;50.742;4.224;2022-08-01T01:02:54;21.10;99.90
20712;DHT22;10517;50.742;4.224;2022-08-01T01:05:19;21.00;99.90
20712;DHT22;10517;50.742;4.224;2022-08-01T01:08:02;21.20;99.90
20712;DHT22;10517;50.742;4.224;2022-08-01T01:10:36;21.10;99.90
20712;DHT22;10517;50.742;4.224;2022-08-01T01:13:11;21.00;99.90
20712;DHT22;10517;50.742;4.224;2022-08-01T01:15:41;20.90;99.90
20712;DHT22;10517;50.742;4.224;2022-08-01T01:20:40;20.60;99.90
20712;DHT22;10517;50.742;4.224;2022-08-01T01:23:40;20.60;99.90
20712;DHT22;10517;50.742;4.224;2022-08-01T01:29:11;20.60;99.90
20712;DHT22;10517;50.742;4.224;2022-08-01T01:31:51;20.60;99.90
20712;DHT22;10517;50.742;4.224;2022-08-01T01:34:20;20.70;99.90
20712;DHT22;10517;50.742;4.224;2022-08-01T01:36:48;20.80;99.90
20712;DHT22;10517;50.742;4.224;2022-08-01T01:39:15;20.80;99.90
20712;DHT22;10517;50.742;4.224;2022-08-01T01:41:43;20.80;99.90
20712;DHT22;10517;50.742;4.224;2022-08-01T01:44:10;20.80;99.90
20712;DHT22;10517;50.742;4.224;2022-08-01T01:46:36;20.90;99.90
20712;DHT22;10517;50.742;4.224;2022-08-01T01:49:03;20.90;99.90
20712;DHT22;10517;50.742;4.224;2022-08-01T01:51:30;20.80;99.90
20712;DHT22;10517;50.742;4.224;2022-08-01T01:53:57;20.80;99.90
20712;DHT22;10517;50.742;4.224;2022-08-01T01:56:24;20.70;99.90
20712;DHT22;10517;50.742;4.224;2022-08-01T01:59:01;20.80;99.90
20712;DHT22;10517;50.742;4.224;2022-08-01T02:01:29;20.80;99.90
20712;DHT22;10517;50.742;4.224;2022-08-01T02:03:57;20.80;99.90
20712;DHT22;10517;50.742;4.224;2022-08-01T02:06:25;20.80;99.90
20712;DHT22;10517;50.742;4.224;2022-08-01T02:08:53;20.90;99.90
20712;DHT22;10517;50.742;4.224;2022-08-01T02:11:20;21.00;99.90
20712;DHT22;10517;50.742;4.224;2022-08-01T02:14:01;20.90;99.90
20712;DHT22;10517;50.742;4.224;2022-08-01T02:16:31;21.00;99.90
20712;DHT22;10517;50.742;4.224;2022-08-01T02:18:59;21.00;99.90
20712;DHT22;10517;50.742;4.224;2022-08-01T02:21:32;21.00;99.90
20712;DHT22;10517;50.742;4.224;2022-08-01T02:24:12;21.00;99.90
20712;DHT22;10517;50.742;4.224;2022-08-01T02:26:41;21.00;99.90
20712;DHT22;10517;50.742;4.224;2022-08-01T02:29:13;20.90;99.90
20712;DHT22;10517;50.742;4.224;2022-08-01T02:31:41;20.90;99.90
20712;DHT22;10517;50.742;4.224;2022-08-01T02:34:13;20.90;99.90
20712;DHT22;10517;50.742;4.224;2022-08-01T02:36:42;20.90;99.90
20712;DHT22;10517;50.742;4.224;2022-08-01T02:39:13;21.00;99.90
20712;DHT22;10517;50.742;4.224;2022-08-01T02:41:45;20.90;99.90
20712;DHT22;10517;50.742;4.224;2022-08-01T02:44:16;20.70;99.90
20712;DHT22;10517;50.742;4.224;2022-08-01T02:46:59;20.60;99.90
20712;DHT22;10517;50.742;4.224;2022-08-01T02:49:31;20.60;99.90
20712;DHT22;10517;50.742;4.224;2022-08-01T02:51:59;20.50;99.90
20712;DHT22;10517;50.742;4.224;2022-08-01T02:54:27;20.30;99.90
20712;DHT22;10517;50.742;4.224;2022-08-01T02:56:56;20.30;99.90
20712;DHT22;10517;50.742;4.224;2022-08-01T02:59:24;20.20;99.90
20712;DHT22;10517;50.742;4.224;2022-08-01T03:01:54;20.20;99.90
20712;DHT22;10517;50.742;4.224;2022-08-01T03:04:24;20.40;99.90
20712;DHT22;10517;50.742;4.224;2022-08-01T03:06:51;20.50;99.90
20712;DHT22;10517;50.742;4.224;2022-08-01T03:09:18;20.60;99.90
20712;DHT22;10517;50.742;4.224;2022-08-01T03:11:45;20.40;99.90
20712;DHT22;10517;50.742;4.224;2022-08-01T03:14:12;20.40;99.90
20712;DHT22;10517;50.742;4.224;2022-08-01T03:16:41;20.40;99.90
20712;DHT22;10517;50.742;4.224;2022-08-01T03:19:09;20.40;99.90
20712;DHT22;10517;50.742;4.224;2022-08-01T03:21:37;20.30;99.90
20712;DHT22;10517;50.742;4.224;2022-08-01T03:24:05;20.20;99.90
20712;DHT22;10517;50.742;4.224;2022-08-01T03:26:34;20.10;99.90
20712;DHT22;10517;50.742;4.224;2022-08-01T03:29:06;20.10;99.90
20712;DHT22;10517;50.742;4.224;2022-08-01T03:31:34;20.10;99.90
20712;DHT22;10517;50.742;4.224;2022-08-01T03:34:00;20.10;99.90
20712;DHT22;10517;50.742;4.224;2022-08-01T03:36:28;20.10;99.90
20712;DHT22;10517;50.742;4.224;2022-08-01T03:38:57;20.00;99.90
20712;DHT22;10517;50.742;4.224;2022-08-01T03:41:29;19.80;99.90
20712;DHT22;10517;50.742;4.224;2022-08-01T03:44:03;19.70;99.90
20712;DHT22;10517;50.742;4.224;2022-08-01T03:46:39;19.60;99.90
20712;DHT22;10517;50.742;4.224;2022-08-01T03:49:14;19.60;99.90
20712;DHT22;10517;50.742;4.224;2022-08-01T03:51:44;19.50;99.90
20712;DHT22;10517;50.742;4.224;2022-08-01T03:54:10;19.60;99.90
20712;DHT22;10517;50.742;4.224;2022-08-01T03:56:38;19.50;99.90
20712;DHT22;10517;50.742;4.224;2022-08-01T03:59:06;19.40;99.90
20712;DHT22;10517;50.742;4.224;2022-08-01T04:01:32;19.40;99.90
20712;DHT22;10517;50.742;4.224;2022-08-01T04:03:59;19.40;99.90
20712;DHT22;10517;50.742;4.224;2022-08-01T04:06:25;19.30;99.90
20712;DHT22;10517;50.742;4.224;2022-08-01T04:08:51;19.30;99.90
20712;DHT22;10517;50.742;4.224;2022-08-01T04:11:24;19.20;99.90
20712;DHT22;10517;50.742;4.224;2022-08-01T04:13:51;19.10;99.90
20712;DHT22;10517;50.742;4.224;2022-08-01T04:16:18;19.10;99.90
20712;DHT22;10517;50.742;4.224;2022-08-01T04:18:44;19.10;99.90
20712;DHT22;10517;50.742;4.224;2022-08-01T04:21:10;19.10;99.90
20712;DHT22;10517;50.742;4.224;2022-08-01T04:23:36;19.10;99.90
20712;DHT22;10517;50.742;4.224;2022-08-01T04:26:04;19.20;99.90
20712;DHT22;10517;50.742;4.224;2022-08-01T04:28:34;19.10;99.90
20712;DHT22;10517;50.742;4.224;2022-08-01T04:31:02;19.20;99.90
20712;DHT22;10517;50.742;4.224;2022-08-01T04:33:31;19.30;99.90
20712;DHT22;10517;50.742;4.224;2022-08-01T04:35:59;19.30;99.90
20712;DHT22;10517;50.742;4.224;2022-08-01T04:38:28;19.40;99.90
20712;DHT22;10517;50.742;4.224;2022-08-01T04:40:56;19.40;99.90
20712;DHT22;10517;50.742;4.224;2022-08-01T04:43:22;19.30;99.90
20712;DHT22;10517;50.742;4.224;2022-08-01T04:45:49;19.30;99.90
20712;DHT22;10517;50.742;4.224;2022-08-01T04:48:17;19.30;99.90
20712;DHT22;10517;50.742;4.224;2022-08-01T04:50:45;19.20;99.90
20712;DHT22;10517;50.742;4.224;2022-08-01T04:53:15;19.30;99.90
20712;DHT22;10517;50.742;4.224;2022-08-01T04:55:44;19.30;99.90
20712;DHT22;10517;50.742;4.224;2022-08-01T04:58:11;19.30;99.90
20712;DHT22;10517;50.742;4.224;2022-08-01T05:00:37;19.40;99.90
20712;DHT22;10517;50.742;4.224;2022-08-01T05:03:03;19.30;99.90
20712;DHT22;10517;50.742;4.224;2022-08-01T05:05:28;19.20;99.90
20712;DHT22;10517;50.742;4.224;2022-08-01T05:07:55;19.10;99.90
20712;DHT22;10517;50.742;4.224;2022-08-01T05:10:21;19.00;99.90
20712;DHT22;10517;50.742;4.224;2022-08-01T05:12:47;19.00;99.90
20712;DHT22;10517;50.742;4.224;2022-08-01T05:15:12;19.10;99.90
20712;DHT22;10517;50.742;4.224;2022-08-01T05:17:38;19.20;99.90
20712;DHT22;10517;50.742;4.224;2022-08-01T05:20:04;19.20;99.90
20712;DHT22;10517;50.742;4.224;2022-08-01T05:22:31;19.30;99.90
20712;DHT22;10517;50.742;4.224;2022-08-01T05:24:57;19.40;99.90
20712;DHT22;10517;50.742;4.224;2022-08-01T05:27:22;19.40;99.90
20712;DHT22;10517;50.742;4.224;2022-08-01T05:29:48;19.40;99.90
20712;DHT22;10517;50.742;4.224;2022-08-01T05:32:13;19.50;99.90
20712;DHT22;10517;50.742;4.224;2022-08-01T05:34:39;19.50;99.90
20712;DHT22;10517;50.742;4.224;2022-08-01T05:37:05;19.60;99.90
20712;DHT22;10517;50.742;4.224;2022-08-01T05:39:30;19.60;99.90
20712;DHT22;10517;50.742;4.224;2022-08-01T05:41:56;19.60;99.90
20712;DHT22;10517;50.742;4.224;2022-08-01T05:44:21;19.50;99.90
20712;DHT22;10517;50.742;4.224;2022-08-01T05:46:47;19.50;99.90
20712;DHT22;10517;50.742;4.224;2022-08-01T05:49:13;19.60;99.90
20712;DHT22;10517;50.742;4.224;2022-08-01T05:51:38;19.60;99.90
20712;DHT22;10517;50.742;4.224;2022-08-01T05:54:04;19.50;99.90
20712;DHT22;10517;50.742;4.224;2022-08-01T05:56:30;19.50;99.90
20712;DHT22;10517;50.742;4.224;2022-08-01T05:58:55;19.70;99.90
20712;DHT22;10517;50.742;4.224;2022-08-01T06:01:21;19.90;99.90
20712;DHT22;10517;50.742;4.224;2022-08-01T06:03:46;20.00;99.90
20712;DHT22;10517;50.742;4.224;2022-08-01T06:06:12;20.20;99.90
20712;DHT22;10517;50.742;4.224;2022-08-01T06:08:39;20.30;99.90
20712;DHT22;10517;50.742;4.224;2022-08-01T06:11:05;20.50;99.90
20712;DHT22;10517;50.742;4.224;2022-08-01T06:13:31;20.70;99.90
20712;DHT22;10517;50.742;4.224;2022-08-01T06:15:57;20.80;99.90
20712;DHT22;10517;50.742;4.224;2022-08-01T06:18:23;20.80;99.90
20712;DHT22;10517;50.742;4.224;2022-08-01T06:20:48;20.70;99.90
20712;DHT22;10517;50.742;4.224;2022-08-01T06:23:14;20.70;99.90
20712;DHT22;10517;50.742;4.224;2022-08-01T06:25:44;20.40;99.90
20712;DHT22;10517;50.742;4.224;2022-08-01T06:28:09;20.30;99.90
20712;DHT22;10517;50.742;4.224;2022-08-01T06:30:35;20.30;99.90
20712;DHT22;10517;50.742;4.224;2022-08-01T06:33:01;20.30;99.90
20712;DHT22;10517;50.742;4.224;2022-08-01T06:35:27;20.40;99.90
20712;DHT22;10517;50.742;4.224;2022-08-01T06:37:55;20.50;99.90
20712;DHT22;10517;50.742;4.224;2022-08-01T06:40:21;20.60;99.90
20712;DHT22;10517;50.742;4.224;2022-08-01T06:42:46;20.70;99.90
20712;DHT22;10517;50.742;4.224;2022-08-01T06:45:13;20.70;99.90
20712;DHT22;10517;50.742;4.224;2022-08-01T06:47:40;20.90;99.90
20712;DHT22;10517;50.742;4.224;2022-08-01T06:50:07;21.20;99.90
20712;DHT22;10517;50.742;4.224;2022-08-01T06:52:33;21.30;99.90
20712;DHT22;10517;50.742;4.224;2022-08-01T06:54:59;21.20;99.90
20712;DHT22;10517;50.742;4.224;2022-08-01T06:57:24;21.30;99.90
20712;DHT22;10517;50.742;4.224;2022-08-01T06:59:50;21.20;99.90
20712;DHT22;10517;50.742;4.224;2022-08-01T07:02:16;20.80;99.90
20712;DHT22;10517;50.742;4.224;2022-08-01T07:04:41;20.60;99.90
20712;DHT22;10517;50.742;4.224;2022-08-01T07:07:07;20.70;99.90
20712;DHT22;10517;50.742;4.224;2022-08-01T07:09:33;20.70;99.90
20712;DHT22;10517;50.742;4.224;2022-08-01T07:11:58;20.70;99.90
20712;DHT22;10517;50.742;4.224;2022-08-01T07:14:24;20.60;99.90
20712;DHT22;10517;50.742;4.224;2022-08-01T07:16:50;20.50;99.90
20712;DHT22;10517;50.742;4.224;2022-08-01T07:19:16;20.60;99.90
20712;DHT22;10517;50.742;4.224;2022-08-01T07:21:42;20.70;99.90
20712;DHT22;10517;50.742;4.224;2022-08-01T07:24:09;20.80;99.90
20712;DHT22;10517;50.742;4.224;2022-08-01T07:26:35;20.70;99.90
20712;DHT22;10517;50.742;4.224;2022-08-01T07:29:01;20.70;99.90
20712;DHT22;10517;50.742;4.224;2022-08-01T07:31:28;20.90;99.90
20712;DHT22;10517;50.742;4.224;2022-08-01T07:33:53;21.20;99.90
20712;DHT22;10517;50.742;4.224;2022-08-01T07:36:19;21.30;99.90
20712;DHT22;10517;50.742;4.224;2022-08-01T07:38:45;21.30;99.90
20712;DHT22;10517;50.742;4.224;2022-08-01T07:41:11;21.60;99.90
20712;DHT22;10517;50.742;4.224;2022-08-01T07:43:36;21.70;99.90
20712;DHT22;10517;50.742;4.224;2022-08-01T07:46:03;21.90;99.90
20712;DHT22;10517;50.742;4.224;2022-08-01T07:48:29;22.00;99.90
20712;DHT22;10517;50.742;4.224;2022-08-01T07:50:55;22.40;99.90
20712;DHT22;10517;50.742;4.224;2022-08-01T07:53:20;22.40;99.90
20712;DHT22;10517;50.742;4.224;2022-08-01T07:55:46;22.10;99.90
20712;DHT22;10517;50.742;4.224;2022-08-01T07:58:11;22.20;99.90
20712;DHT22;10517;50.742;4.224;2022-08-01T08:00:37;22.40;99.90
20712;DHT22;10517;50.742;4.224;2022-08-01T08:03:03;22.30;99.90
20712;DHT22;10517;50.742;4.224;2022-08-01T08:05:29;22.30;99.90
20712;DHT22;10517;50.742;4.224;2022-08-01T08:07:54;22.50;99.90
20712;DHT22;10517;50.742;4.224;2022-08-01T08:10:21;22.90;99.90
20712;DHT22;10517;50.742;4.224;2022-08-01T08:12:46;23.20;99.90
20712;DHT22;10517;50.742;4.224;2022-08-01T08:15:13;23.00;99.90
20712;DHT22;10517;50.742;4.224;2022-08-01T08:17:39;22.80;99.90
20712;DHT22;10517;50.742;4.224;2022-08-01T08:20:06;22.70;99.90
20712;DHT22;10517;50.742;4.224;2022-08-01T08:22:32;23.00;99.90
20712;DHT22;10517;50.742;4.224;2022-08-01T08:24:58;22.90;99.90
20712;DHT22;10517;50.742;4.224;2022-08-01T08:27:23;22.70;99.90
20712;DHT22;10517;50.742;4.224;2022-08-01T08:29:49;22.80;99.90
20712;DHT22;10517;50.742;4.224;2022-08-01T08:32:15;22.80;99.90
20712;DHT22;10517;50.742;4.224;2022-08-01T08:34:40;22.90;99.90
20712;DHT22;10517;50.742;4.224;2022-08-01T08:37:06;23.00;99.90
20712;DHT22;10517;50.742;4.224;2022-08-01T08:39:32;23.20;99.90
20712;DHT22;10517;50.742;4.224;2022-08-01T08:42:06;22.90;99.90
20712;DHT22;10517;50.742;4.224;2022-08-01T08:44:32;22.80;99.90
20712;DHT22;10517;50.742;4.224;2022-08-01T08:46:58;22.80;99.90
20712;DHT22;10517;50.742;4.224;2022-08-01T08:49:28;22.80;99.90
20712;DHT22;10517;50.742;4.224;2022-08-01T08:51:58;23.00;99.90
20712;DHT22;10517;50.742;4.224;2022-08-01T08:54:25;23.30;99.90
20712;DHT22;10517;50.742;4.224;2022-08-01T08:56:52;23.60;99.90
20712;DHT22;10517;50.742;4.224;2022-08-01T08:59:18;23.60;99.90
20712;DHT22;10517;50.742;4.224;2022-08-01T09:01:45;23.50;99.90
20712;DHT22;10517;50.742;4.224;2022-08-01T09:04:11;23.60;99.90
20712;DHT22;10517;50.742;4.224;2022-08-01T09:06:37;23.70;99.90
20712;DHT22;10517;50.742;4.224;2022-08-01T09:09:04;23.50;99.90
20712;DHT22;10517;50.742;4.224;2022-08-01T09:11:30;23.50;99.90
20712;DHT22;10517;50.742;4.224;2022-08-01T09:14:14;23.50;99.90
20712;DHT22;10517;50.742;4.224;2022-08-01T09:16:42;23.40;99.90
20712;DHT22;10517;50.742;4.224;2022-08-01T09:19:34;23.50;99.90
20712;DHT22;10517;50.742;4.224;2022-08-01T09:22:00;23.90;99.90
20712;DHT22;10517;50.742;4.224;2022-08-01T09:24:28;23.80;99.90
20712;DHT22;10517;50.742;4.224;2022-08-01T09:26:54;23.90;99.90
20712;DHT22;10517;50.742;4.224;2022-08-01T09:29:22;23.90;99.90
20712;DHT22;10517;50.742;4.224;2022-08-01T09:31:48;23.70;99.90
20712;DHT22;10517;50.742;4.224;2022-08-01T09:34:16;23.70;99.90
20712;DHT22;10517;50.742;4.224;2022-08-01T09:36:54;24.10;99.90
20712;DHT22;10517;50.742;4.224;2022-08-01T09:39:26;24.10;99.90
20712;DHT22;10517;50.742;4.224;2022-08-01T09:41:53;24.10;99.90
20712;DHT22;10517;50.742;4.224;2022-08-01T09:44:25;24.10;99.90
20712;DHT22;10517;50.742;4.224;2022-08-01T09:47:01;24.20;99.90
20712;DHT22;10517;50.742;4.224;2022-08-01T09:49:35;24.20;99.90
20712;DHT22;10517;50.742;4.224;2022-08-01T09:52:13;24.30;99.90
20712;DHT22;10517;50.742;4.224;2022-08-01T09:54:40;24.50;99.90
20712;DHT22;10517;50.742;4.224;2022-08-01T09:57:17;25.00;99.90
20712;DHT22;10517;50.742;4.224;2022-08-01T09:59:45;25.70;99.90
20712;DHT22;10517;50.742;4.224;2022-08-01T10:02:12;26.20;99.90
20712;DHT22;10517;50.742;4.224;2022-08-01T10:04:50;26.60;99.90
20712;DHT22;10517;50.742;4.224;2022-08-01T10:07:17;26.70;99.90
20712;DHT22;10517;50.742;4.224;2022-08-01T10:09:44;26.00;99.90
20712;DHT22;10517;50.742;4.224;2022-08-01T10:12:15;25.40;99.90
20712;DHT22;10517;50.742;4.224;2022-08-01T10:14:43;25.00;99.90
20712;DHT22;10517;50.742;4.224;2022-08-01T10:17:12;24.90;99.90
20712;DHT22;10517;50.742;4.224;2022-08-01T10:19:40;25.10;99.90
20712;DHT22;10517;50.742;4.224;2022-08-01T10:22:08;25.30;99.90
20712;DHT22;10517;50.742;4.224;2022-08-01T10:24:37;25.70;99.90
20712;DHT22;10517;50.742;4.224;2022-08-01T10:27:07;26.00;99.90
20712;DHT22;10517;50.742;4.224;2022-08-01T10:29:56;26.00;99.90
20712;DHT22;10517;50.742;4.224;2022-08-01T10:32:22;25.60;99.90
20712;DHT22;10517;50.742;4.224;2022-08-01T10:34:49;26.10;99.90
20712;DHT22;10517;50.742;4.224;2022-08-01T10:37:15;26.40;99.90
20712;DHT22;10517;50.742;4.224;2022-08-01T10:39:43;26.00;99.90
20712;DHT22;10517;50.742;4.224;2022-08-01T10:42:10;25.90;99.90
20712;DHT22;10517;50.742;4.224;2022-08-01T10:44:38;25.60;99.90
20712;DHT22;10517;50.742;4.224;2022-08-01T10:47:13;26.10;99.90
20712;DHT22;10517;50.742;4.224;2022-08-01T10:49:53;26.70;99.90
20712;DHT22;10517;50.742;4.224;2022-08-01T10:52:20;26.90;99.90
20712;DHT22;10517;50.742;4.224;2022-08-01T10:54:46;26.70;99.90
20712;DHT22;10517;50.742;4.224;2022-08-01T10:57:13;26.40;99.90
20712;DHT22;10517;50.742;4.224;2022-08-01T10:59:50;26.40;99.90
20712;DHT22;10517;50.742;4.224;2022-08-01T11:02:27;26.10;99.90
20712;DHT22;10517;50.742;4.224;2022-08-01T11:05:09;25.90;99.90
20712;DHT22;10517;50.742;4.224;2022-08-01T11:10:23;26.80;99.90
20712;DHT22;10517;50.742;4.224;2022-08-01T11:12:50;26.70;99.90
20712;DHT22;10517;50.742;4.224;2022-08-01T11:15:18;26.80;99.90
20712;DHT22;10517;50.742;4.224;2022-08-01T11:17:50;26.90;99.90
20712;DHT22;10517;50.742;4.224;2022-08-01T11:20:19;27.30;99.90
20712;DHT22;10517;50.742;4.224;2022-08-01T11:30:44;27.20;99.90
20712;DHT22;10517;50.742;4.224;2022-08-01T11:33:11;27.70;99.90
20712;DHT22;10517;50.742;4.224;2022-08-01T11:35:37;28.40;99.90
20712;DHT22;10517;50.742;4.224;2022-08-01T11:38:27;28.70;99.90
20712;DHT22;10517;50.742;4.224;2022-08-01T11:41:25;28.80;99.90
20712;DHT22;10517;50.742;4.224;2022-08-01T11:47:01;28.40;99.90
20712;DHT22;10517;50.742;4.224;2022-08-01T11:52:09;28.60;99.90
20712;DHT22;10517;50.742;4.224;2022-08-01T11:54:41;28.70;99.90
20712;DHT22;10517;50.742;4.224;2022-08-01T11:57:13;28.40;99.90
20712;DHT22;10517;50.742;4.224;2022-08-01T11:59:45;27.80;99.90
20712;DHT22;10517;50.742;4.224;2022-08-01T12:02:29;27.20;99.90
20712;DHT22;10517;50.742;4.224;2022-08-01T12:04:58;26.90;99.90
20712;DHT22;10517;50.742;4.224;2022-08-01T12:07:25;27.30;99.90
20712;DHT22;10517;50.742;4.224;2022-08-01T12:10:14;27.70;99.90
20712;DHT22;10517;50.742;4.224;2022-08-01T12:12:45;28.00;99.90
20712;DHT22;10517;50.742;4.224;2022-08-01T12:15:12;28.40;99.90
20712;DHT22;10517;50.742;4.224;2022-08-01T12:17:46;28.50;99.90
20712;DHT22;10517;50.742;4.224;2022-08-01T12:20:14;27.80;99.90
20712;DHT22;10517;50.742;4.224;2022-08-01T12:22:40;27.20;99.90
20712;DHT22;10517;50.742;4.224;2022-08-01T12:25:07;27.10;99.90
20712;DHT22;10517;50.742;4.224;2022-08-01T12:27:33;27.10;99.90
20712;DHT22;10517;50.742;4.224;2022-08-01T12:29:59;27.90;99.90
20712;DHT22;10517;50.742;4.224;2022-08-01T12:32:30;28.40;99.90
20712;DHT22;10517;50.742;4.224;2022-08-01T12:35:01;28.80;99.90
20712;DHT22;10517;50.742;4.224;2022-08-01T12:37:27;28.60;99.90
20712;DHT22;10517;50.742;4.224;2022-08-01T12:39:53;28.40;99.90
20712;DHT22;10517;50.742;4.224;2022-08-01T12:42:19;28.20;99.90
20712;DHT22;10517;50.742;4.224;2022-08-01T12:44:50;28.30;99.90
20712;DHT22;10517;50.742;4.224;2022-08-01T12:47:17;28.70;99.90
20712;DHT22;10517;50.742;4.224;2022-08-01T12:49:43;28.80;99.90
20712;DHT22;10517;50.742;4.224;2022-08-01T12:52:10;28.50;99.90
20712;DHT22;10517;50.742;4.224;2022-08-01T12:55:00;28.90;99.90
20712;DHT22;10517;50.742;4.224;2022-08-01T12:57:26;29.50;99.90
20712;DHT22;10517;50.742;4.224;2022-08-01T13:00:06;30.00;99.90
20712;DHT22;10517;50.742;4.224;2022-08-01T13:02:33;29.50;99.90
20712;DHT22;10517;50.742;4.224;2022-08-01T13:04:59;29.70;99.90
20712;DHT22;10517;50.742;4.224;2022-08-01T13:07:43;29.50;99.90
20712;DHT22;10517;50.742;4.224;2022-08-01T13:10:10;29.30;99.90
20712;DHT22;10517;50.742;4.224;2022-08-01T13:12:38;28.90;99.90
20712;DHT22;10517;50.742;4.224;2022-08-01T13:15:31;28.80;99.90
20712;DHT22;10517;50.742;4.224;2022-08-01T13:17:58;28.70;99.90
20712;DHT22;10517;50.742;4.224;2022-08-01T13:20:34;28.40;99.90
20712;DHT22;10517;50.742;4.224;2022-08-01T13:23:11;28.10;99.90
20712;DHT22;10517;50.742;4.224;2022-08-01T13:25:50;29.20;99.90
20712;DHT22;10517;50.742;4.224;2022-08-01T13:28:17;30.50;99.90
20712;DHT22;10517;50.742;4.224;2022-08-01T13:31:06;32.10;99.60
20712;DHT22;10517;50.742;4.224;2022-08-01T13:33:48;32.80;98.80
20712;DHT22;10517;50.742;4.224;2022-08-01T13:36:14;32.50;96.80
20712;DHT22;10517;50.742;4.224;2022-08-01T13:38:42;32.60;97.30
20712;DHT22;10517;50.742;4.224;2022-08-01T13:41:27;32.80;96.40
20712;DHT22;10517;50.742;4.224;2022-08-01T13:43:53;32.00;96.40
20712;DHT22;10517;50.742;4.224;2022-08-01T13:46:20;31.10;98.40
20712;DHT22;10517;50.742;4.224;2022-08-01T13:48:45;30.40;98.90
20712;DHT22;10517;50.742;4.224;2022-08-01T13:51:11;29.80;99.90
20712;DHT22;10517;50.742;4.224;2022-08-01T13:53:37;29.40;99.90
20712;DHT22;10517;50.742;4.224;2022-08-01T13:56:02;29.00;99.90
20712;DHT22;10517;50.742;4.224;2022-08-01T13:58:28;28.90;99.90
20712;DHT22;10517;50.742;4.224;2022-08-01T14:00:54;29.50;99.90
20712;DHT22;10517;50.742;4.224;2022-08-01T14:03:21;30.70;99.90
20712;DHT22;10517;50.742;4.224;2022-08-01T14:05:47;31.80;98.10
20712;DHT22;10517;50.742;4.224;2022-08-01T14:08:14;31.50;99.10
20712;DHT22;10517;50.742;4.224;2022-08-01T14:10:39;31.10;98.00
20712;DHT22;10517;50.742;4.224;2022-08-01T14:13:05;31.00;99.10
20712;DHT22;10517;50.742;4.224;2022-08-01T14:15:31;30.30;99.60
20712;DHT22;10517;50.742;4.224;2022-08-01T14:17:57;29.70;99.10
20712;DHT22;10517;50.742;4.224;2022-08-01T14:20:23;30.50;99.90
20712;DHT22;10517;50.742;4.224;2022-08-01T14:22:49;31.90;98.10
20712;DHT22;10517;50.742;4.224;2022-08-01T14:25:15;33.70;96.60
20712;DHT22;10517;50.742;4.224;2022-08-01T14:27:40;34.20;93.60
20712;DHT22;10517;50.742;4.224;2022-08-01T14:30:08;33.50;93.40
20712;DHT22;10517;50.742;4.224;2022-08-01T14:32:35;31.60;94.30
20712;DHT22;10517;50.742;4.224;2022-08-01T14:35:05;30.60;96.50
20712;DHT22;10517;50.742;4.224;2022-08-01T14:37:31;29.90;96.90
20712;DHT22;10517;50.742;4.224;2022-08-01T14:39:58;29.40;98.20
20712;DHT22;10517;50.742;4.224;2022-08-01T14:42:24;29.40;98.60
20712;DHT22;10517;50.742;4.224;2022-08-01T14:44:50;29.10;99.00
20712;DHT22;10517;50.742;4.224;2022-08-01T14:47:16;29.30;99.90
20712;DHT22;10517;50.742;4.224;2022-08-01T14:49:42;30.90;97.00
20712;DHT22;10517;50.742;4.224;2022-08-01T14:52:07;32.30;94.30
20712;DHT22;10517;50.742;4.224;2022-08-01T14:54:33;32.70;95.00
20712;DHT22;10517;50.742;4.224;2022-08-01T14:56:58;33.30;94.10
20712;DHT22;10517;50.742;4.224;2022-08-01T14:59:24;35.00;92.40
20712;DHT22;10517;50.742;4.224;2022-08-01T15:01:50;36.60;90.20
20712;DHT22;10517;50.742;4.224;2022-08-01T15:04:15;37.20;88.20
20712;DHT22;10517;50.742;4.224;2022-08-01T15:06:43;36.50;85.80
20712;DHT22;10517;50.742;4.224;2022-08-01T15:09:08;35.70;84.50
20712;DHT22;10517;50.742;4.224;2022-08-01T15:11:34;34.40;86.80
20712;DHT22;10517;50.742;4.224;2022-08-01T15:14:00;33.80;89.10
20712;DHT22;10517;50.742;4.224;2022-08-01T15:16:44;33.40;91.20
20712;DHT22;10517;50.742;4.224;2022-08-01T15:19:09;33.20;90.70
20712;DHT22;10517;50.742;4.224;2022-08-01T15:21:35;33.20;90.40
20712;DHT22;10517;50.742;4.224;2022-08-01T15:24:00;32.30;91.70
20712;DHT22;10517;50.742;4.224;2022-08-01T15:26:26;32.70;91.60
20712;DHT22;10517;50.742;4.224;2022-08-01T15:28:53;34.40;90.50
20712;DHT22;10517;50.742;4.224;2022-08-01T15:31:19;36.00;84.20
20712;DHT22;10517;50.742;4.224;2022-08-01T15:33:44;36.90;83.70
20712;DHT22;10517;50.742;4.224;2022-08-01T15:36:10;36.90;81.80
20712;DHT22;10517;50.742;4.224;2022-08-01T15:38:35;35.60;81.00
20712;DHT22;10517;50.742;4.224;2022-08-01T15:41:01;34.00;83.40
20712;DHT22;10517;50.742;4.224;2022-08-01T15:43:27;32.90;85.70
20712;DHT22;10517;50.742;4.224;2022-08-01T15:45:53;32.00;88.00
20712;DHT22;10517;50.742;4.224;2022-08-01T15:48:18;31.50;88.50
20712;DHT22;10517;50.742;4.224;2022-08-01T15:50:44;31.20;90.60
20712;DHT22;10517;50.742;4.224;2022-08-01T15:53:10;32.00;89.20
20712;DHT22;10517;50.742;4.224;2022-08-01T15:55:37;33.10;90.00
20712;DHT22;10517;50.742;4.224;2022-08-01T15:58:03;34.20;87.00
20712;DHT22;10517;50.742;4.224;2022-08-01T16:00:28;35.30;82.30